Airfield :
LOGIN :

Register | Disclaimer

   EN    FR    IT 

 










Legend :    VFR   Marginal VFR   IFR   Intensive IFR   Very Intensive IFR
Visi :
Ceiling :
>= 8 km
>= 3000ft
5 to 8 km
1000 to 3000 ft
1500m to 5 km
500 to 1000 ft
800 to 1500m
200 to 500 ft
< 800m
< 200 ft
Symbols :   Thunderstorms  Fog  Heavy snow  Heavy precipitations  Wind > 20 kt
SIGMETs :     Misc.  Thunderstorms  Icing  Turbulence  Mountain Waves  Volcanic Ashes






- Airport Elevation : 325 ft
- IATA code : BES


LFRB - Brest

CURRENT METAR :
  • 261100Z AUTO 17012KT 4900 -RA BR BKN003/// OVC008/// ///TCU 07/07 Q1016 TEMPO RA BKN008 BECMG 18015G25KT

EXPIRED METARs :
  • 261030Z AUTO 15008KT 3700 -RA BR OVC009/// ///TCU 07/06 Q1017 TEMPO RA BKN008 BECMG 18015G25KT
  • 261000Z AUTO 05007KT 010V080 5000 2300 -RA BR BKN010/// OVC015/// ///CB 07/06 Q1018 TEMPO RA BKN012 BECMG 18015G25KT
  • 260930Z AUTO 19015KT 9999 -RA SCT018/// OVC024/// ///TCU 08/06 Q1016 TEMPO 4000 RA BKN012 BECMG 18015G25KT
  • 260900Z AUTO 19016KT 9999 -RADZ FEW026/// BKN031/// BKN040/// ///TCU 08/05 Q1016 TEMPO RA BECMG 18015G25KT NSC
  • 260830Z AUTO 19016KT 9999 -RA FEW025/// SCT033/// BKN050/// ///TCU 07/05 Q1016 TEMPO RA BECMG 18015G25KT NSC

TAF AMD TAF LFRB
Valid from the 26 at 10:00 until the 27 at 12:00 UTC


261008Z 2610/2712 18015G25KT 5000 RA OVC015
TEMPO 2610/2613 3000 RA BKN008
BECMG 2613/2615 20010KT 3000 RA OVC005
BECMG 2615/2617 1200 BR OVC001
BECMG 2618/2621 VRB05KT
TEMPO 2617/2621 0400 FG VV///
BECMG 2623/2701 9999 NSW BKN008
TEMPO 2702/2707 0500 FG VV///
BECMG 2707/2709 3000 RA BKN005
BECMG 2710/2712 18010KT
ATIS : +33 2 98 32 02 71



MET'MAP, your aeronautical weather chart ! - Copyright ORBIFLY December 2007 - Disclaimer

ORBIFLY MET'MAP TEAM :

Programming & Development : Alexandra Zaïnal
Concept & original design : Baudouin d'Aumeries
Assistance for programming : Marc-Olivier Méhu
Technical & hardware support : Manuel Goepfert

Contact : metmap@orbifly.com




SOURCES & CREDITS :

   NOAA